KLCQ

Lake City Gateway Airport

Lake City, Florida, USA
METAR KLCQ 151535Z AUTO 30005KT 10SM SCT044 OVC065 16/14 A3005 RMK AO2
Observed Flight Rules
Dec-15 @ 15:35 UTC (28 minutes ago) Visual Flight Rules
Wind Visibility Clouds
300° at 5 knots 10 miles
  • Scattered at 4,400' AGL
  • Overcast at 6,500' AGL
Temperatures Readings
Current 16°C / 61°F
Dewpoint 14°C / 57°F
Humidity 88%
Altimeter 30.05" Hg
Pressure 1018 hPa
Elevation 61
METAR KLCQ 151535Z AUTO 30005KT 10SM SCT044 OVC065 16/14 A3005 RMK AO2
Observed Flight Rules
Dec-15 @ 15:35 UTC
(28 minutes ago)
VFR
Wind Visibility
300° at 5 knots 10 miles
Clouds
  • Scattered at 4,400' AGL
  • Overcast at 6,500' AGL
Temperature Dewpoint
16°C / 61°F 14°C / 57°F
Humidity Altimeter Pressure
88% 30.05" Hg 1018 hPa